Time;durP1;ratioP1;P1;durP2;ratioP2;P2;SDS_P1;SDS_P2;PMS_P1;PMS_P2;Temp;Humidity;BMP_temperature;BMP_pressure;BME280_temperature;BME280_humidity;BME280_pressure;Samples;Min_cycle;Max_cycle;Signal;HPM_P1;HPM_P2
2023/10/21 00:02:28;;;;;;;34.22;19.50;;;8.50;99.90;;;;;;4942401;28;20527;-75
2023/10/21 00:05:14;;;;;;;32.70;20.23;;;8.50;99.90;;;;;;4943715;28;20122;-75
2023/10/21 00:08:00;;;;;;;30.73;20.15;;;8.50;99.90;;;;;;4919498;28;20193;-75
2023/10/21 00:10:46;;;;;;;31.58;19.83;;;8.50;99.90;;;;;;4943061;28;20043;-75
2023/10/21 00:13:33;;;;;;;33.67;20.30;;;8.60;99.90;;;;;;4952377;28;20047;-75
2023/10/21 00:16:21;;;;;;;32.17;21.17;;;8.60;99.90;;;;;;4945816;28;20045;-78
2023/10/21 00:19:10;;;;;;;31.90;21.25;;;8.60;99.90;;;;;;4933126;28;20270;-78
2023/10/21 00:21:56;;;;;;;34.00;21.52;;;8.60;99.90;;;;;;4922924;28;20129;-78
2023/10/21 00:24:45;;;;;;;50.00;24.20;;;8.60;99.90;;;;;;4947551;28;20054;-78
2023/10/21 00:27:31;;;;;;;77.25;21.95;;;8.60;99.90;;;;;;4956268;28;20788;-78
2023/10/21 00:30:17;;;;;;;30.42;20.85;;;8.60;99.90;;;;;;4961358;28;20137;-78
2023/10/21 00:33:03;;;;;;;34.08;21.48;;;8.60;99.90;;;;;;4989311;28;20030;-78
2023/10/21 00:35:49;;;;;;;36.67;20.65;;;8.60;99.90;;;;;;4951212;28;20097;-78
2023/10/21 00:38:35;;;;;;;115.38;22.27;;;8.60;99.90;;;;;;4961880;28;20469;-78
2023/10/21 00:41:21;;;;;;;37.97;19.98;;;8.60;99.90;;;;;;4958179;28;20045;-78
2023/10/21 00:44:08;;;;;;;30.52;20.60;;;8.60;99.90;;;;;;4960835;28;20133;-78
2023/10/21 00:46:54;;;;;;;33.85;19.38;;;8.60;99.90;;;;;;4961483;28;20101;-78
2023/10/21 00:49:42;;;;;;;29.25;20.80;;;8.60;99.90;;;;;;4961570;28;20046;-78
2023/10/21 00:52:28;;;;;;;27.45;19.95;;;8.60;99.90;;;;;;4962313;28;20042;-78
2023/10/21 00:55:14;;;;;;;101.70;23.13;;;8.60;99.90;;;;;;4936230;29;20077;-78
2023/10/21 00:58:01;;;;;;;226.65;29.88;;;8.60;99.90;;;;;;4930040;29;20035;-78
2023/10/21 01:00:50;;;;;;;123.70;25.80;;;8.60;99.90;;;;;;4959413;28;20125;-78
2023/10/21 01:03:36;;;;;;;249.55;31.05;;;8.60;99.90;;;;;;4943845;28;20046;-78
2023/10/21 01:06:22;;;;;;;270.40;31.05;;;8.60;99.90;;;;;;4944438;28;20054;-78
2023/10/21 01:09:08;;;;;;;234.23;29.88;;;8.60;99.90;;;;;;4942997;28;20661;-78
2023/10/21 01:11:54;;;;;;;175.82;27.83;;;8.60;99.90;;;;;;4930051;29;20055;-78
2023/10/21 01:14:40;;;;;;;322.77;33.05;;;8.60;99.90;;;;;;4942784;28;20043;-78
2023/10/21 01:17:26;;;;;;;34.53;21.58;;;8.60;99.90;;;;;;4961800;28;20045;-78
2023/10/21 01:20:13;;;;;;;53.67;20.52;;;8.60;99.90;;;;;;4955925;28;20101;-78
2023/10/21 01:22:59;;;;;;;25.98;19.33;;;8.60;99.90;;;;;;4939975;29;20054;-78
2023/10/21 01:25:45;;;;;;;133.23;23.00;;;8.60;99.90;;;;;;4928409;28;20360;-77
2023/10/21 01:28:35;;;;;;;150.25;23.88;;;8.60;99.90;;;;;;4930928;28;20559;-78
2023/10/21 01:31:21;;;;;;;304.73;31.67;;;8.60;99.90;;;;;;4960510;28;20047;-78
2023/10/21 01:34:08;;;;;;;262.42;30.25;;;8.60;99.90;;;;;;4957676;28;20078;-78
2023/10/21 01:36:54;;;;;;;79.95;22.55;;;8.50;99.90;;;;;;4957636;28;20058;-78
2023/10/21 01:39:40;;;;;;;38.05;19.63;;;8.50;99.90;;;;;;4956191;28;20057;-78
2023/10/21 01:42:26;;;;;;;38.08;19.45;;;8.50;99.90;;;;;;4980347;28;20419;-77
2023/10/21 01:45:13;;;;;;;107.57;20.95;;;8.50;99.90;;;;;;4960038;28;20050;-78
2023/10/21 01:47:59;;;;;;;117.53;20.42;;;8.50;99.90;;;;;;4990553;28;20065;-78
2023/10/21 01:50:45;;;;;;;103.80;20.02;;;8.50;99.90;;;;;;4991014;28;20482;-78
2023/10/21 01:53:31;;;;;;;24.65;17.92;;;8.50;99.90;;;;;;4980638;28;20133;-78
2023/10/21 01:56:17;;;;;;;25.80;17.77;;;8.50;99.90;;;;;;4964047;28;20049;-78
2023/10/21 01:59:04;;;;;;;23.80;17.92;;;8.50;99.90;;;;;;4961235;28;20039;-78
2023/10/21 02:01:49;;;;;;;83.05;20.13;;;8.50;99.90;;;;;;4954424;28;20074;-78
2023/10/21 02:04:37;;;;;;;24.33;18.02;;;8.50;99.90;;;;;;4988929;28;20045;-78
2023/10/21 02:07:23;;;;;;;70.80;20.70;;;8.50;99.90;;;;;;4985862;28;20089;-78
2023/10/21 02:10:09;;;;;;;51.55;18.27;;;8.50;99.90;;;;;;4957127;28;20043;-78
2023/10/21 02:12:55;;;;;;;26.05;16.48;;;8.50;99.90;;;;;;4973146;28;20157;-78
2023/10/21 02:15:41;;;;;;;40.20;18.10;;;8.50;99.90;;;;;;4967330;28;20144;-78
2023/10/21 02:18:27;;;;;;;48.47;17.55;;;8.50;99.90;;;;;;4978572;28;20475;-74
2023/10/21 02:21:13;;;;;;;21.45;17.55;;;8.50;99.90;;;;;;4976674;28;20050;-74
2023/10/21 02:23:59;;;;;;;21.70;16.02;;;8.60;99.90;;;;;;4979741;28;20576;-75
2023/10/21 02:26:45;;;;;;;25.98;17.33;;;8.60;99.90;;;;;;4989180;28;20129;-75
2023/10/21 02:29:32;;;;;;;21.85;16.25;;;8.60;99.90;;;;;;4965989;28;20387;-75
2023/10/21 02:32:19;;;;;;;;;;;8.60;99.90;;;;;;4995571;28;20046;-74
2023/10/21 02:35:05;;;;;;;27.23;17.67;;;8.60;99.90;;;;;;4990453;28;20270;-74
2023/10/21 02:37:51;;;;;;;24.58;17.55;;;8.60;99.90;;;;;;4979240;28;20038;-75
2023/10/21 02:40:41;;;;;;;23.02;17.67;;;8.60;99.90;;;;;;4976678;28;20518;-75
2023/10/21 02:43:28;;;;;;;27.00;19.73;;;8.60;99.90;;;;;;4973897;28;20424;-75
2023/10/21 02:46:14;;;;;;;36.53;22.23;;;8.70;99.90;;;;;;4984214;28;20053;-74
2023/10/21 02:49:00;;;;;;;32.60;20.73;;;8.70;99.90;;;;;;4978970;28;20052;-75
2023/10/21 02:51:46;;;;;;;30.90;20.95;;;8.70;99.90;;;;;;4961917;28;20129;-75
2023/10/21 02:54:32;;;;;;;31.60;21.13;;;8.70;99.90;;;;;;4965678;28;20081;-74
2023/10/21 02:57:19;;;;;;;30.88;20.80;;;8.80;99.90;;;;;;4972407;28;20120;-75
2023/10/21 03:00:10;;;;;;;31.92;21.20;;;8.80;99.90;;;;;;4974234;28;20041;-75
2023/10/21 03:02:56;;;;;;;31.70;20.17;;;8.80;99.90;;;;;;4948657;28;20073;-75
2023/10/21 03:05:42;;;;;;;28.35;20.13;;;8.80;99.90;;;;;;4981126;28;20049;-75
2023/10/21 03:08:28;;;;;;;28.58;20.33;;;8.90;99.90;;;;;;4968948;28;20066;-75
2023/10/21 03:11:14;;;;;;;31.35;21.60;;;8.90;99.90;;;;;;4952514;28;20037;-75
2023/10/21 03:14:00;;;;;;;25.60;18.63;;;8.90;99.90;;;;;;4976522;28;20487;-75
2023/10/21 03:16:48;;;;;;;29.40;19.95;;;8.90;99.90;;;;;;4970142;28;20042;-75
2023/10/21 03:19:34;;;;;;;25.88;18.23;;;8.90;99.90;;;;;;4972935;28;20053;-75
2023/10/21 03:22:23;;;;;;;26.10;19.00;;;8.90;99.90;;;;;;4979986;28;20364;-75
2023/10/21 03:25:09;;;;;;;27.63;20.50;;;9.00;99.90;;;;;;4980720;28;20494;-75
2023/10/21 03:27:55;;;;;;;25.55;19.30;;;9.00;99.90;;;;;;4957419;28;20038;-75
2023/10/21 03:30:42;;;;;;;31.50;21.70;;;9.00;99.90;;;;;;4960652;28;20482;-75
2023/10/21 03:33:29;;;;;;;29.52;21.02;;;9.00;99.90;;;;;;5001093;28;20042;-75
2023/10/21 03:36:15;;;;;;;25.50;18.83;;;9.00;99.90;;;;;;4971037;28;20141;-75
2023/10/21 03:39:01;;;;;;;27.95;18.80;;;9.00;99.90;;;;;;4970539;28;20038;-75
2023/10/21 03:41:47;;;;;;;29.80;20.88;;;9.00;99.90;;;;;;4969830;28;20043;-75
2023/10/21 03:44:33;;;;;;;27.55;19.35;;;9.00;99.90;;;;;;4951529;28;20047;-75
2023/10/21 03:47:19;;;;;;;29.23;19.98;;;9.00;99.90;;;;;;4969513;28;20117;-74
2023/10/21 03:50:05;;;;;;;25.63;18.77;;;9.00;99.90;;;;;;4969861;28;20045;-75
2023/10/21 03:52:51;;;;;;;26.58;18.75;;;9.10;99.90;;;;;;4986766;28;20061;-74
2023/10/21 03:55:37;;;;;;;29.08;19.98;;;9.10;99.90;;;;;;4962802;28;20031;-75
2023/10/21 03:58:24;;;;;;;28.30;18.73;;;9.10;99.90;;;;;;4972026;28;20045;-75
2023/10/21 04:01:10;;;;;;;26.08;18.95;;;9.10;99.90;;;;;;4980094;28;20199;-74
2023/10/21 04:03:56;;;;;;;24.35;17.95;;;9.10;99.90;;;;;;4975857;28;20050;-74
2023/10/21 04:06:42;;;;;;;25.73;18.55;;;9.10;99.90;;;;;;4959609;28;20125;-75
2023/10/21 04:09:28;;;;;;;25.60;19.25;;;9.20;99.90;;;;;;4966971;28;20780;-75
2023/10/21 04:12:14;;;;;;;27.45;18.20;;;9.20;99.90;;;;;;4952688;28;20138;-75
2023/10/21 04:15:00;;;;;;;27.67;19.20;;;9.20;99.90;;;;;;5001157;28;20038;-74
2023/10/21 04:17:47;;;;;;;28.05;19.27;;;9.20;99.90;;;;;;4971010;28;20125;-75
2023/10/21 04:20:33;;;;;;;30.08;20.02;;;9.20;99.90;;;;;;4974914;28;20665;-74
2023/10/21 04:23:19;;;;;;;24.90;18.75;;;9.20;99.90;;;;;;4995362;28;20042;-75
2023/10/21 04:26:05;;;;;;;26.15;17.40;;;9.30;99.90;;;;;;4989026;28;20047;-75
2023/10/21 04:28:51;;;;;;;28.90;18.85;;;9.30;99.90;;;;;;4962008;28;20052;-75
2023/10/21 04:31:39;;;;;;;30.65;19.08;;;9.30;99.90;;;;;;4955522;28;20499;-74
2023/10/21 04:34:25;;;;;;;28.00;18.80;;;9.30;99.90;;;;;;4961393;28;20468;-75
2023/10/21 04:37:11;;;;;;;26.42;18.67;;;9.30;99.90;;;;;;4979572;28;20330;-75
2023/10/21 04:39:57;;;;;;;27.30;19.90;;;9.40;99.90;;;;;;4994818;28;20081;-75
2023/10/21 04:42:43;;;;;;;25.25;18.52;;;9.40;99.90;;;;;;4978339;28;20115;-75
2023/10/21 04:45:29;;;;;;;26.48;18.77;;;9.40;99.90;;;;;;4987524;28;20069;-75
2023/10/21 04:48:15;;;;;;;35.28;22.15;;;9.40;99.90;;;;;;4971684;28;20057;-74
2023/10/21 04:51:01;;;;;;;33.58;21.95;;;9.40;99.90;;;;;;4994388;28;20120;-74
2023/10/21 04:53:47;;;;;;;30.38;21.00;;;9.50;99.90;;;;;;4986515;28;20378;-75
2023/10/21 04:56:36;;;;;;;39.92;23.77;;;9.50;99.90;;;;;;4972034;28;20089;-75
2023/10/21 04:59:22;;;;;;;29.75;20.33;;;9.50;99.90;;;;;;4958464;28;20399;-74
2023/10/21 05:02:08;;;;;;;27.42;18.95;;;9.60;99.90;;;;;;4994815;28;20049;-74
2023/10/21 05:04:55;;;;;;;27.48;19.58;;;9.60;99.90;;;;;;4995063;28;20034;-75
2023/10/21 05:07:41;;;;;;;25.02;18.17;;;9.60;99.90;;;;;;4992105;28;20060;-74
2023/10/21 05:10:27;;;;;;;26.20;19.10;;;9.60;99.90;;;;;;4989707;28;20842;-74
2023/10/21 05:13:13;;;;;;;26.52;18.85;;;9.60;99.90;;;;;;4986802;28;20053;-75
2023/10/21 05:15:59;;;;;;;24.58;18.02;;;9.60;99.90;;;;;;4993626;28;20038;-75
2023/10/21 05:18:45;;;;;;;25.50;17.98;;;9.60;99.90;;;;;;4985892;28;20077;-75
2023/10/21 05:21:31;;;;;;;24.25;18.45;;;9.60;99.90;;;;;;4978641;28;20046;-75
2023/10/21 05:24:18;;;;;;;26.95;19.00;;;9.60;99.90;;;;;;4971820;28;20140;-74
2023/10/21 05:27:04;;;;;;;27.17;19.20;;;9.70;99.90;;;;;;5002439;28;20061;-75
2023/10/21 05:29:50;;;;;;;25.83;17.17;;;9.60;99.90;;;;;;4998115;28;20347;-75
2023/10/21 05:32:37;;;;;;;22.83;17.13;;;9.70;99.90;;;;;;4982954;28;20121;-74
2023/10/21 05:35:23;;;;;;;25.23;18.23;;;9.70;99.90;;;;;;4967272;28;20042;-74
2023/10/21 05:38:09;;;;;;;25.02;16.88;;;9.70;99.90;;;;;;4987205;28;20035;-74
2023/10/21 05:40:57;;;;;;;25.20;18.92;;;9.70;99.90;;;;;;4970593;28;20046;-74
2023/10/21 05:43:45;;;;;;;23.55;17.50;;;9.70;99.90;;;;;;4965767;28;20045;-74
2023/10/21 05:46:31;;;;;;;27.88;17.30;;;9.70;99.90;;;;;;4956042;28;20100;-74
2023/10/21 05:49:18;;;;;;;24.23;17.55;;;9.70;99.90;;;;;;4970956;28;20125;-78
2023/10/21 05:52:04;;;;;;;27.95;19.20;;;9.70;99.90;;;;;;4961547;28;20060;-78
2023/10/21 05:54:51;;;;;;;25.35;18.30;;;9.80;99.90;;;;;;4987191;28;20508;-78
2023/10/21 05:57:38;;;;;;;24.47;17.37;;;9.70;99.90;;;;;;4995978;28;20493;-77
2023/10/21 06:00:27;;;;;;;27.08;18.60;;;9.80;99.90;;;;;;4997813;28;20133;-77
2023/10/21 06:03:14;;;;;;;26.70;18.88;;;9.80;99.90;;;;;;4976714;28;20042;-78
2023/10/21 06:06:02;;;;;;;24.75;17.77;;;9.80;99.90;;;;;;4948409;28;20498;-78
2023/10/21 06:08:48;;;;;;;29.77;19.08;;;9.80;99.90;;;;;;4973716;28;20053;-78
2023/10/21 06:11:34;;;;;;;23.27;17.30;;;9.80;99.90;;;;;;4950479;28;20038;-77
2023/10/21 06:14:21;;;;;;;24.92;17.35;;;9.80;99.90;;;;;;4986467;28;20129;-77
2023/10/21 06:17:07;;;;;;;22.67;16.87;;;9.80;99.90;;;;;;4967084;28;20121;-76
2023/10/21 06:19:53;;;;;;;23.52;16.92;;;9.80;99.90;;;;;;4977175;28;20357;-75
2023/10/21 06:22:39;;;;;;;24.45;17.60;;;9.90;99.90;;;;;;4987045;28;20130;-75
2023/10/21 06:25:26;;;;;;;32.45;21.13;;;9.90;99.90;;;;;;4986016;28;20418;-75
2023/10/21 06:28:16;;;;;;;24.65;18.58;;;9.90;99.90;;;;;;4988071;28;20050;-76
2023/10/21 06:31:05;;;;;;;24.17;18.35;;;9.90;99.90;;;;;;4963461;28;20057;-75
2023/10/21 06:33:51;;;;;;;26.95;18.75;;;9.90;99.90;;;;;;4972053;28;20057;-75
2023/10/21 06:36:37;;;;;;;26.65;19.40;;;9.90;99.90;;;;;;4971932;28;20069;-75
2023/10/21 06:39:23;;;;;;;25.13;18.30;;;9.90;99.90;;;;;;4960526;28;20094;-75
2023/10/21 06:42:11;;;;;;;24.27;17.80;;;9.90;99.90;;;;;;4946461;28;20047;-76
2023/10/21 06:44:56;;;;;;;25.05;18.80;;;9.90;99.90;;;;;;4990979;28;20117;-75
2023/10/21 06:47:43;;;;;;;24.42;18.10;;;10.00;99.90;;;;;;4982474;28;20138;-75
2023/10/21 06:50:31;;;;;;;24.25;17.98;;;10.00;99.90;;;;;;4978076;28;20046;-75
2023/10/21 06:53:17;;;;;;;24.83;17.83;;;10.00;99.90;;;;;;4987624;28;20121;-75
2023/10/21 06:56:07;;;;;;;22.67;17.17;;;10.00;99.90;;;;;;4975982;28;20125;-78
2023/10/21 06:58:53;;;;;;;23.20;17.65;;;10.00;99.90;;;;;;4974516;28;20105;-77
2023/10/21 07:01:40;;;;;;;24.63;17.23;;;10.00;99.90;;;;;;4980074;28;20085;-78
2023/10/21 07:04:26;;;;;;;25.48;18.60;;;10.10;99.90;;;;;;4979008;28;20736;-75
2023/10/21 07:07:15;;;;;;;22.17;16.65;;;10.00;99.90;;;;;;4958914;28;20042;-75
2023/10/21 07:10:01;;;;;;;25.70;18.02;;;10.00;99.90;;;;;;4984439;28;20045;-75
2023/10/21 07:12:47;;;;;;;21.73;16.95;;;10.10;99.90;;;;;;4993013;28;20050;-75
2023/10/21 07:15:35;;;;;;;25.27;18.70;;;10.10;99.90;;;;;;4989606;28;20033;-75
2023/10/21 07:18:21;;;;;;;22.38;17.30;;;10.10;99.90;;;;;;4998647;28;20100;-74
2023/10/21 07:21:08;;;;;;;26.85;18.63;;;10.10;99.90;;;;;;4997157;28;20344;-74
2023/10/21 07:23:54;;;;;;;22.42;16.90;;;10.10;99.90;;;;;;4981713;28;20046;-75
2023/10/21 07:26:40;;;;;;;28.52;19.98;;;10.10;99.90;;;;;;4953470;28;20113;-75
2023/10/21 07:29:25;;;;;;;26.38;19.88;;;10.20;99.90;;;;;;4976783;28;20081;-75
2023/10/21 07:32:11;;;;;;;26.55;18.42;;;10.20;99.90;;;;;;4987427;28;20070;-74
2023/10/21 07:34:57;;;;;;;24.80;18.10;;;10.20;99.90;;;;;;4976537;28;20038;-75
2023/10/21 07:37:44;;;;;;;25.80;18.60;;;10.20;99.90;;;;;;4977505;28;20130;-74
2023/10/21 07:40:30;;;;;;;28.65;19.38;;;10.30;99.90;;;;;;4959467;28;20065;-75
2023/10/21 07:43:16;;;;;;;25.50;18.10;;;10.30;99.90;;;;;;4998137;28;20108;-74
2023/10/21 07:46:05;;;;;;;25.55;17.50;;;10.30;99.90;;;;;;4976926;28;20419;-74
2023/10/21 07:48:51;;;;;;;23.17;16.75;;;10.30;99.90;;;;;;5002373;28;20129;-75
2023/10/21 07:51:37;;;;;;;29.42;17.92;;;10.40;99.90;;;;;;4997742;28;20054;-74
2023/10/21 07:54:25;;;;;;;23.80;18.02;;;10.40;99.90;;;;;;4988734;28;20088;-78
2023/10/21 07:57:11;;;;;;;25.70;18.10;;;10.50;99.90;;;;;;4989905;28;20046;-78
2023/10/21 08:00:00;;;;;;;29.42;19.95;;;10.50;99.90;;;;;;5005119;28;20034;-78
2023/10/21 08:02:46;;;;;;;27.65;18.77;;;10.50;99.90;;;;;;5007047;28;20128;-77
2023/10/21 08:05:32;;;;;;;28.25;19.02;;;10.60;99.90;;;;;;4987215;28;20073;-75
2023/10/21 08:08:18;;;;;;;26.58;19.48;;;10.60;99.90;;;;;;5004863;28;20100;-74
2023/10/21 08:11:06;;;;;;;27.85;19.30;;;10.70;99.90;;;;;;4992462;28;20542;-75
2023/10/21 08:13:55;;;;;;;30.02;19.85;;;10.70;99.90;;;;;;4975894;28;20047;-75
2023/10/21 08:16:42;;;;;;;28.10;19.67;;;10.80;99.90;;;;;;4976476;28;20138;-75
2023/10/21 08:19:31;;;;;;;27.58;18.35;;;10.80;99.90;;;;;;4994698;28;20038;-74
2023/10/21 08:22:19;;;;;;;29.45;19.77;;;10.90;99.90;;;;;;4990125;28;20045;-75
2023/10/21 08:25:08;;;;;;;30.50;19.65;;;10.90;99.90;;;;;;4984613;28;20041;-75
2023/10/21 08:27:55;;;;;;;30.90;20.23;;;10.90;99.90;;;;;;4980183;28;20050;-74
2023/10/21 08:30:41;;;;;;;39.97;22.70;;;11.00;99.90;;;;;;4980917;28;20046;-75
2023/10/21 08:33:27;;;;;;;30.58;20.15;;;11.00;99.90;;;;;;4962178;28;20507;-74
2023/10/21 08:36:18;;;;;;;33.08;21.08;;;11.10;99.90;;;;;;5009794;28;20069;-74
2023/10/21 08:39:07;;;;;;;35.28;22.15;;;11.10;99.90;;;;;;4986938;28;20069;-75
2023/10/21 08:41:53;;;;;;;31.58;21.35;;;11.10;99.90;;;;;;5015926;28;20129;-75
2023/10/21 08:44:40;;;;;;;34.63;21.02;;;11.20;99.90;;;;;;4991152;28;20046;-75
2023/10/21 08:47:28;;;;;;;30.25;20.38;;;11.20;99.90;;;;;;4974132;28;20129;-75
2023/10/21 08:50:14;;;;;;;31.20;19.92;;;11.20;99.90;;;;;;4987495;28;20050;-74
2023/10/21 08:53:00;;;;;;;34.88;19.40;;;11.30;99.90;;;;;;4968634;28;20042;-75
2023/10/21 08:55:46;;;;;;;30.15;19.20;;;11.40;99.90;;;;;;4970772;28;20113;-74
2023/10/21 08:58:33;;;;;;;25.85;16.10;;;11.60;99.90;;;;;;4960823;28;20047;-74
2023/10/21 09:01:20;;;;;;;22.73;14.25;;;11.70;99.90;;;;;;4972843;28;20042;-75
2023/10/21 09:04:07;;;;;;;17.40;11.93;;;11.90;99.90;;;;;;4991460;28;20094;-75
2023/10/21 09:06:54;;;;;;;15.43;10.30;;;12.00;99.90;;;;;;4974124;28;20047;-74
2023/10/21 09:09:40;;;;;;;13.07;9.57;;;12.10;99.90;;;;;;4975538;28;20049;-74
2023/10/21 09:12:29;;;;;;;10.02;6.38;;;12.20;99.90;;;;;;4994004;28;20158;-74
2023/10/21 09:15:15;;;;;;;5.43;4.22;;;12.30;99.90;;;;;;5001678;28;20038;-74
2023/10/21 09:18:13;;;;;;;4.95;3.28;;;12.50;99.90;;;;;;4981171;28;20049;-75
2023/10/21 09:20:59;;;;;;;3.53;1.92;;;12.70;99.90;;;;;;4973455;28;20046;-74
2023/10/21 09:23:51;;;;;;;2.80;1.63;;;12.90;99.90;;;;;;4960951;28;20051;-75
2023/10/21 09:26:43;;;;;;;2.92;1.95;;;13.10;99.90;;;;;;4989782;28;20037;-75
2023/10/21 09:29:29;;;;;;;2.25;1.70;;;13.20;99.90;;;;;;4998780;28;20042;-75
2023/10/21 09:32:14;;;;;;;2.47;1.20;;;13.40;99.90;;;;;;4985988;28;20056;-75
2023/10/21 09:35:13;;;;;;;1.10;1.00;;;13.50;99.90;;;;;;4965861;28;20046;-75
2023/10/21 09:38:18;;;;;;;2.72;1.20;;;13.60;99.90;;;;;;4983282;28;20093;-76
2023/10/21 09:41:07;;;;;;;3.00;1.00;;;13.90;99.90;;;;;;4963964;28;20063;-76
2023/10/21 09:43:56;;;;;;;1.95;0.90;;;14.00;99.90;;;;;;4950841;28;20522;-76
2023/10/21 09:46:49;;;;;;;1.42;0.98;;;14.10;99.90;;;;;;4967382;28;20042;-75
2023/10/21 09:49:41;;;;;;;1.88;1.00;;;14.30;99.90;;;;;;4943471;28;20046;-75
2023/10/21 09:52:34;;;;;;;2.22;0.70;;;14.30;99.90;;;;;;4946072;28;20043;-75
2023/10/21 09:55:24;;;;;;;1.38;0.88;;;14.60;99.90;;;;;;4959468;28;20133;-76
2023/10/21 09:58:11;;;;;;;2.03;0.80;;;14.80;99.90;;;;;;4942958;28;20046;-75
2023/10/21 10:01:02;;;;;;;4.87;1.13;;;14.90;99.90;;;;;;4949573;28;20057;-75
2023/10/21 10:03:52;;;;;;;1.05;0.80;;;15.10;99.90;;;;;;4941747;29;20070;-75
2023/10/21 10:06:38;;;;;;;1.10;0.77;;;15.10;99.90;;;;;;4951085;28;20375;-76
2023/10/21 10:09:27;;;;;;;1.27;0.70;;;15.20;99.90;;;;;;4954830;28;20042;-75
2023/10/21 10:12:23;;;;;;;4.45;1.08;;;15.30;99.90;;;;;;4951668;28;20169;-75
2023/10/21 10:15:41;;;;;;;2.25;0.98;;;15.40;99.90;;;;;;4972503;28;20092;-75
2023/10/21 10:18:28;;;;;;;2.05;0.77;;;15.40;99.90;;;;;;4962423;28;20043;-76
2023/10/21 10:21:14;;;;;;;4.15;1.20;;;15.50;99.90;;;;;;4943467;28;20134;-75
2023/10/21 10:24:04;;;;;;;2.40;0.75;;;15.80;99.90;;;;;;4928557;28;20046;-74
2023/10/21 10:26:52;;;;;;;1.60;0.75;;;15.90;99.90;;;;;;4962115;28;20132;-75
2023/10/21 10:29:39;;;;;;;0.80;0.60;;;16.10;99.90;;;;;;4949014;28;20042;-75
2023/10/21 10:32:29;;;;;;;1.45;0.63;;;15.90;99.90;;;;;;4965402;28;20053;-75
2023/10/21 10:35:31;;;;;;;1.30;0.70;;;16.10;99.90;;;;;;4915785;29;20078;-75
2023/10/21 10:38:24;;;;;;;1.08;0.65;;;15.90;99.90;;;;;;4978045;28;20050;-76
2023/10/21 10:41:18;;;;;;;1.17;0.50;;;15.90;99.90;;;;;;4966634;28;20586;-77
2023/10/21 10:44:06;;;;;;;4.25;1.13;;;15.60;99.90;;;;;;4956551;28;20100;-76
2023/10/21 10:46:53;;;;;;;;;;;15.70;99.90;;;;;;4978214;28;20378;-79
2023/10/21 10:50:00;;;;;;;1.92;0.60;;;16.10;99.90;;;;;;4967533;28;19910;-79
2023/10/21 10:52:46;;;;;;;0.95;0.45;;;16.80;99.90;;;;;;4966889;28;20047;-76
2023/10/21 10:55:32;;;;;;;1.13;0.60;;;17.30;99.90;;;;;;4927718;29;20031;-76
2023/10/21 10:58:18;;;;;;;1.55;0.80;;;17.70;99.90;;;;;;4943926;29;20050;-79
2023/10/21 11:01:07;;;;;;;2.65;0.90;;;17.90;99.90;;;;;;4917999;28;20039;-79
2023/10/21 11:04:00;;;;;;;1.67;0.70;;;18.10;99.90;;;;;;4952804;29;20047;-79
2023/10/21 11:06:49;;;;;;;1.40;0.60;;;18.30;99.90;;;;;;4944248;28;20074;-79
2023/10/21 11:09:36;;;;;;;1.48;0.77;;;18.50;99.90;;;;;;4949877;28;20086;-79
2023/10/21 11:12:27;;;;;;;3.08;0.75;;;18.80;99.90;;;;;;4953350;28;20101;-79
2023/10/21 11:15:14;;;;;;;1.30;0.55;;;18.60;99.90;;;;;;4936368;28;20044;-78
2023/10/21 11:18:03;;;;;;;1.75;0.50;;;18.60;99.90;;;;;;4963865;28;20039;-79
2023/10/21 11:20:50;;;;;;;3.55;0.57;;;;;;;;;;4954935;28;20042;-78
2023/10/21 11:23:36;;;;;;;1.33;0.43;;;18.60;99.90;;;;;;4968519;28;20042;-79
2023/10/21 11:26:22;;;;;;;1.77;0.60;;;18.80;99.90;;;;;;4951740;28;20096;-79
2023/10/21 11:29:08;;;;;;;2.17;0.80;;;18.60;99.90;;;;;;4956468;28;20039;-78
2023/10/21 11:31:54;;;;;;;2.47;0.70;;;18.40;99.90;;;;;;4943095;28;20484;-78
2023/10/21 11:34:44;;;;;;;1.90;0.80;;;18.30;99.90;;;;;;4954427;28;20071;-78
2023/10/21 11:37:30;;;;;;;2.22;1.05;;;18.50;99.90;;;;;;4951136;28;20031;-78
2023/10/21 11:40:17;;;;;;;3.70;1.02;;;18.60;99.90;;;;;;4997694;28;20064;-78
2023/10/21 11:43:07;;;;;;;3.03;1.30;;;18.70;99.90;;;;;;4972112;28;20378;-78
2023/10/21 11:45:54;;;;;;;3.15;1.30;;;18.80;99.90;;;;;;5016573;28;20042;-78
2023/10/21 11:48:40;;;;;;;3.78;0.90;;;18.80;99.90;;;;;;4989804;28;20046;-78
2023/10/21 11:51:29;;;;;;;2.40;0.90;;;18.60;99.90;;;;;;4987452;28;20129;-78
2023/10/21 11:54:33;;;;;;;2.55;0.82;;;18.50;99.90;;;;;;4965353;28;20054;-78
2023/10/21 11:57:41;;;;;;;2.13;0.88;;;18.80;99.90;;;;;;4997746;28;20483;-78
2023/10/21 12:33:52;;;;;;;1.73;0.50;;;20.10;99.90;;;;;;4967536;28;20109;-79
2023/10/21 12:36:41;;;;;;;0.95;0.50;;;21.20;99.90;;;;;;4997526;28;20034;-79
2023/10/21 12:42:35;;;;;;;0.70;0.45;;;22.00;99.90;;;;;;5022240;28;20050;-80
2023/10/21 12:45:22;;;;;;;1.00;0.50;;;22.30;99.90;;;;;;4978380;28;20097;-80
2023/10/21 12:48:08;;;;;;;1.13;0.50;;;22.10;99.90;;;;;;4993628;28;20034;-79
2023/10/21 12:50:54;;;;;;;0.93;0.60;;;21.60;99.90;;;;;;5016239;28;20285;-80
2023/10/21 12:53:41;;;;;;;0.73;0.50;;;21.40;99.90;;;;;;4973961;28;20471;-79
2023/10/21 12:56:27;;;;;;;1.52;0.40;;;21.40;99.90;;;;;;4989276;28;20053;-79
2023/10/21 12:59:14;;;;;;;0.70;0.50;;;21.30;99.90;;;;;;4992562;28;20045;-80
2023/10/21 13:02:00;;;;;;;1.10;0.60;;;21.50;99.90;;;;;;5011828;28;20053;-79
2023/10/21 13:04:46;;;;;;;2.15;0.80;;;21.80;99.90;;;;;;4972841;28;20048;-78
2023/10/21 13:07:32;;;;;;;0.88;0.55;;;21.90;99.90;;;;;;4989063;28;20352;-78
2023/10/21 13:10:18;;;;;;;4.47;1.20;;;21.50;99.40;;;;;;4995778;28;20042;-77
2023/10/21 13:13:08;;;;;;;1.85;0.77;;;20.40;99.90;;;;;;5007576;28;20050;-77
2023/10/21 13:15:55;;;;;;;0.57;0.40;;;19.70;99.90;;;;;;4995600;28;20037;-75
2023/10/21 13:18:42;;;;;;;1.92;0.90;;;19.50;99.90;;;;;;4986294;28;20045;-75
2023/10/21 13:21:28;;;;;;;2.30;0.45;;;18.60;99.90;;;;;;5012776;28;20053;-74
2023/10/21 13:24:15;;;;;;;1.80;0.60;;;18.00;99.90;;;;;;4979965;28;20061;-75
2023/10/21 13:27:05;;;;;;;3.70;0.70;;;17.80;99.90;;;;;;4974100;28;20438;-74
2023/10/21 13:29:51;;;;;;;1.17;0.47;;;17.60;99.90;;;;;;4980821;28;20278;-75
2023/10/21 13:32:39;;;;;;;3.83;0.50;;;17.30;99.90;;;;;;4964431;28;20066;-74
2023/10/21 13:35:25;;;;;;;0.88;0.57;;;17.10;99.90;;;;;;4972365;28;20042;-76
2023/10/21 13:38:12;;;;;;;4.75;1.60;;;17.10;99.90;;;;;;4995294;28;20113;-74
2023/10/21 13:40:58;;;;;;;2.83;0.90;;;16.90;99.90;;;;;;4968105;28;20491;-76
2023/10/21 13:43:44;;;;;;;2.67;0.77;;;16.80;99.90;;;;;;4950173;28;20065;-75
2023/10/21 13:46:30;;;;;;;1.23;0.60;;;16.80;99.90;;;;;;4964555;28;20366;-76
2023/10/21 13:49:16;;;;;;;1.77;0.50;;;16.70;99.90;;;;;;4961019;28;20080;-75
2023/10/21 13:52:03;;;;;;;2.00;0.47;;;16.70;99.90;;;;;;4946507;28;20046;-75
2023/10/21 13:54:49;;;;;;;2.17;0.85;;;16.80;99.90;;;;;;4950392;28;20039;-75
2023/10/21 13:57:36;;;;;;;1.75;0.40;;;16.80;99.90;;;;;;4956637;28;20038;-75
2023/10/21 14:00:31;;;;;;;1.27;0.68;;;16.90;99.90;;;;;;4937848;28;20138;-75
2023/10/21 14:03:21;;;;;;;1.42;0.43;;;16.80;99.90;;;;;;4960677;28;20563;-75
2023/10/21 14:06:07;;;;;;;0.85;0.38;;;16.80;99.90;;;;;;4945669;28;20039;-75
2023/10/21 14:08:53;;;;;;;1.15;0.47;;;16.80;99.90;;;;;;4956619;28;20129;-75
2023/10/21 14:11:39;;;;;;;1.65;0.45;;;16.80;99.90;;;;;;4936429;28;20456;-76
2023/10/21 14:14:25;;;;;;;3.00;0.60;;;16.80;99.90;;;;;;4964990;28;20446;-75
2023/10/21 14:17:11;;;;;;;1.67;0.52;;;16.90;99.90;;;;;;4945334;28;20049;-75
2023/10/21 14:19:59;;;;;;;1.48;0.57;;;17.00;99.90;;;;;;4926474;28;20038;-76
2023/10/21 14:22:45;;;;;;;1.30;0.60;;;17.10;99.90;;;;;;4947886;28;20038;-76
2023/10/21 14:25:31;;;;;;;1.27;0.52;;;17.10;99.90;;;;;;4946779;28;20057;-76
2023/10/21 14:28:18;;;;;;;2.47;1.02;;;17.00;99.90;;;;;;4962304;28;20046;-76
2023/10/21 14:31:06;;;;;;;2.35;0.77;;;17.00;99.90;;;;;;4970275;28;20042;-76
2023/10/21 14:33:52;;;;;;;3.22;1.00;;;17.00;99.90;;;;;;4963612;28;20049;-75
2023/10/21 14:36:38;;;;;;;1.95;0.55;;;17.00;99.90;;;;;;4970626;28;20045;-75
2023/10/21 14:39:24;;;;;;;3.80;1.10;;;17.00;99.90;;;;;;4959529;28;20069;-75
2023/10/21 14:42:10;;;;;;;2.58;0.90;;;17.10;99.90;;;;;;4988373;28;20037;-75
2023/10/21 14:44:57;;;;;;;3.13;1.17;;;17.20;99.90;;;;;;4988590;28;20095;-75
2023/10/21 14:47:43;;;;;;;2.35;0.60;;;17.10;99.90;;;;;;4989884;28;20111;-76
2023/10/21 14:50:29;;;;;;;3.42;0.50;;;17.10;99.90;;;;;;4977849;28;20366;-76
2023/10/21 14:53:15;;;;;;;5.75;0.50;;;17.10;99.90;;;;;;4973642;28;20601;-76
2023/10/21 14:56:02;;;;;;;1.58;0.70;;;17.10;99.90;;;;;;4994652;28;20073;-78
2023/10/21 14:58:47;;;;;;;1.35;0.60;;;17.10;99.90;;;;;;4969891;28;20048;-78